sensor_id;sensor_type;location;lat;lon;timestamp;temperature;humidity
53314;DHT22;39202;51.468;7.146;2022-12-18T00:03:05;21.70;38.00
53314;DHT22;39202;51.468;7.146;2022-12-18T00:08:06;21.70;38.00
53314;DHT22;39202;51.468;7.146;2022-12-18T00:13:08;21.70;37.90
53314;DHT22;39202;51.468;7.146;2022-12-18T00:18:11;21.70;37.90
53314;DHT22;39202;51.468;7.146;2022-12-18T00:23:13;21.80;38.00
53314;DHT22;39202;51.468;7.146;2022-12-18T00:28:15;21.70;37.90
53314;DHT22;39202;51.468;7.146;2022-12-18T00:33:18;21.70;37.90
53314;DHT22;39202;51.468;7.146;2022-12-18T00:38:20;21.70;37.90
53314;DHT22;39202;51.468;7.146;2022-12-18T00:43:21;21.70;37.90
53314;DHT22;39202;51.468;7.146;2022-12-18T00:48:24;21.70;38.00
53314;DHT22;39202;51.468;7.146;2022-12-18T00:53:26;21.70;38.00
53314;DHT22;39202;51.468;7.146;2022-12-18T00:58:28;21.70;38.00
53314;DHT22;39202;51.468;7.146;2022-12-18T01:03:31;21.80;38.10
53314;DHT22;39202;51.468;7.146;2022-12-18T01:08:32;21.80;38.00
53314;DHT22;39202;51.468;7.146;2022-12-18T01:13:34;21.80;38.00
53314;DHT22;39202;51.468;7.146;2022-12-18T01:18:37;21.80;38.00
53314;DHT22;39202;51.468;7.146;2022-12-18T01:23:39;21.80;37.80
53314;DHT22;39202;51.468;7.146;2022-12-18T01:28:42;21.90;37.80
53314;DHT22;39202;51.468;7.146;2022-12-18T01:33:45;21.80;37.80
53314;DHT22;39202;51.468;7.146;2022-12-18T01:38:47;21.80;37.70
53314;DHT22;39202;51.468;7.146;2022-12-18T01:43:52;21.80;38.30
53314;DHT22;39202;51.468;7.146;2022-12-18T01:48:57;21.80;37.70
53314;DHT22;39202;51.468;7.146;2022-12-18T01:53:59;21.80;37.70
53314;DHT22;39202;51.468;7.146;2022-12-18T01:59:03;21.80;37.80
53314;DHT22;39202;51.468;7.146;2022-12-18T02:04:20;21.70;37.80
53314;DHT22;39202;51.468;7.146;2022-12-18T02:09:25;21.70;37.80
53314;DHT22;39202;51.468;7.146;2022-12-18T02:14:33;21.80;37.90
53314;DHT22;39202;51.468;7.146;2022-12-18T02:19:47;21.80;38.60
53314;DHT22;39202;51.468;7.146;2022-12-18T02:25:00;21.80;38.00
53314;DHT22;39202;51.468;7.146;2022-12-18T02:30:08;21.80;37.90
53314;DHT22;39202;51.468;7.146;2022-12-18T02:35:13;21.90;37.90
53314;DHT22;39202;51.468;7.146;2022-12-18T02:40:17;21.90;37.80
53314;DHT22;39202;51.468;7.146;2022-12-18T02:45:21;21.90;37.80
53314;DHT22;39202;51.468;7.146;2022-12-18T02:50:29;21.90;37.70
53314;DHT22;39202;51.468;7.146;2022-12-18T02:55:41;21.90;37.60
53314;DHT22;39202;51.468;7.146;2022-12-18T03:00:53;21.90;37.60
53314;DHT22;39202;51.468;7.146;2022-12-18T03:06:01;21.90;37.60
53314;DHT22;39202;51.468;7.146;2022-12-18T03:11:08;21.80;37.60
53314;DHT22;39202;51.468;7.146;2022-12-18T03:16:15;21.80;37.60
53314;DHT22;39202;51.468;7.146;2022-12-18T03:21:23;21.80;37.60
53314;DHT22;39202;51.468;7.146;2022-12-18T03:26:28;21.80;37.70
53314;DHT22;39202;51.468;7.146;2022-12-18T03:31:35;21.70;37.70
53314;DHT22;39202;51.468;7.146;2022-12-18T03:36:39;21.70;37.70
53314;DHT22;39202;51.468;7.146;2022-12-18T03:41:44;21.80;37.80
53314;DHT22;39202;51.468;7.146;2022-12-18T03:46:54;21.80;37.80
53314;DHT22;39202;51.468;7.146;2022-12-18T03:52:02;21.80;37.80
53314;DHT22;39202;51.468;7.146;2022-12-18T03:57:07;21.80;37.80
53314;DHT22;39202;51.468;7.146;2022-12-18T04:02:12;21.80;37.80
53314;DHT22;39202;51.468;7.146;2022-12-18T04:07:14;21.90;37.80
53314;DHT22;39202;51.468;7.146;2022-12-18T04:12:17;21.90;37.70
53314;DHT22;39202;51.468;7.146;2022-12-18T04:17:20;21.90;37.60
53314;DHT22;39202;51.468;7.146;2022-12-18T04:22:22;21.90;37.60
53314;DHT22;39202;51.468;7.146;2022-12-18T04:27:24;21.80;37.50
53314;DHT22;39202;51.468;7.146;2022-12-18T04:32:27;21.80;37.50
53314;DHT22;39202;51.468;7.146;2022-12-18T04:37:29;21.80;37.50
53314;DHT22;39202;51.468;7.146;2022-12-18T04:42:31;21.80;37.60
53314;DHT22;39202;51.468;7.146;2022-12-18T04:47:34;21.80;37.60
53314;DHT22;39202;51.468;7.146;2022-12-18T04:52:35;21.70;37.60
53314;DHT22;39202;51.468;7.146;2022-12-18T04:57:37;21.70;37.60
53314;DHT22;39202;51.468;7.146;2022-12-18T05:02:40;21.70;37.60
53314;DHT22;39202;51.468;7.146;2022-12-18T05:07:42;21.80;37.70
53314;DHT22;39202;51.468;7.146;2022-12-18T05:12:43;21.80;37.70
53314;DHT22;39202;51.468;7.146;2022-12-18T05:18:01;21.80;37.70
53314;DHT22;39202;51.468;7.146;2022-12-18T05:23:03;21.80;37.70
53314;DHT22;39202;51.468;7.146;2022-12-18T05:28:04;21.90;37.70
53314;DHT22;39202;51.468;7.146;2022-12-18T05:33:07;21.90;37.60
53314;DHT22;39202;51.468;7.146;2022-12-18T05:38:10;21.90;37.60
53314;DHT22;39202;51.468;7.146;2022-12-18T05:43:12;21.90;37.50
53314;DHT22;39202;51.468;7.146;2022-12-18T05:48:16;21.90;37.50
53314;DHT22;39202;51.468;7.146;2022-12-18T05:53:19;21.80;37.40
53314;DHT22;39202;51.468;7.146;2022-12-18T05:58:21;21.80;37.40
53314;DHT22;39202;51.468;7.146;2022-12-18T06:03:24;21.80;37.40
53314;DHT22;39202;51.468;7.146;2022-12-18T06:08:26;21.70;37.30
53314;DHT22;39202;51.468;7.146;2022-12-18T06:13:28;21.70;37.30
53314;DHT22;39202;51.468;7.146;2022-12-18T06:18:31;21.70;37.40
53314;DHT22;39202;51.468;7.146;2022-12-18T06:23:32;21.70;37.50
53314;DHT22;39202;51.468;7.146;2022-12-18T06:28:34;21.70;37.50
53314;DHT22;39202;51.468;7.146;2022-12-18T06:33:38;21.70;37.60
53314;DHT22;39202;51.468;7.146;2022-12-18T06:38:41;21.70;37.60
53314;DHT22;39202;51.468;7.146;2022-12-18T06:43:44;21.70;37.60
53314;DHT22;39202;51.468;7.146;2022-12-18T06:48:50;21.70;37.60
53314;DHT22;39202;51.468;7.146;2022-12-18T06:53:52;21.80;37.60
53314;DHT22;39202;51.468;7.146;2022-12-18T06:58:53;21.80;37.60
53314;DHT22;39202;51.468;7.146;2022-12-18T07:03:57;21.80;37.60
53314;DHT22;39202;51.468;7.146;2022-12-18T07:08:59;21.80;37.60
53314;DHT22;39202;51.468;7.146;2022-12-18T07:14:01;21.80;37.60
53314;DHT22;39202;51.468;7.146;2022-12-18T07:19:04;21.80;37.50
53314;DHT22;39202;51.468;7.146;2022-12-18T07:24:06;21.40;37.20
53314;DHT22;39202;51.468;7.146;2022-12-18T07:29:08;21.90;37.30
53314;DHT22;39202;51.468;7.146;2022-12-18T07:34:12;21.90;37.30
53314;DHT22;39202;51.468;7.146;2022-12-18T07:39:14;21.80;37.30
53314;DHT22;39202;51.468;7.146;2022-12-18T07:44:15;21.80;38.00
53314;DHT22;39202;51.468;7.146;2022-12-18T07:49:19;21.80;37.40
53314;DHT22;39202;51.468;7.146;2022-12-18T07:54:20;21.70;37.40
53314;DHT22;39202;51.468;7.146;2022-12-18T07:59:22;21.70;37.50
53314;DHT22;39202;51.468;7.146;2022-12-18T08:04:25;21.80;37.60
53314;DHT22;39202;51.468;7.146;2022-12-18T08:09:27;21.80;37.60
53314;DHT22;39202;51.468;7.146;2022-12-18T08:14:28;21.80;37.50
53314;DHT22;39202;51.468;7.146;2022-12-18T08:19:31;21.90;37.50
53314;DHT22;39202;51.468;7.146;2022-12-18T08:24:33;20.60;36.90
53314;DHT22;39202;51.468;7.146;2022-12-18T08:29:35;21.90;37.40
53314;DHT22;39202;51.468;7.146;2022-12-18T08:34:38;21.90;37.40
53314;DHT22;39202;51.468;7.146;2022-12-18T08:39:40;21.90;37.30
53314;DHT22;39202;51.468;7.146;2022-12-18T08:44:41;21.90;37.30
53314;DHT22;39202;51.468;7.146;2022-12-18T08:49:44;21.90;37.30
53314;DHT22;39202;51.468;7.146;2022-12-18T08:54:46;21.90;37.30
53314;DHT22;39202;51.468;7.146;2022-12-18T08:59:48;21.80;37.30
53314;DHT22;39202;51.468;7.146;2022-12-18T09:04:51;21.80;37.30
53314;DHT22;39202;51.468;7.146;2022-12-18T09:09:53;21.80;37.40
53314;DHT22;39202;51.468;7.146;2022-12-18T09:14:55;21.80;37.40
53314;DHT22;39202;51.468;7.146;2022-12-18T09:19:59;21.80;37.40
53314;DHT22;39202;51.468;7.146;2022-12-18T09:25:00;21.80;37.40
53314;DHT22;39202;51.468;7.146;2022-12-18T09:30:03;21.90;37.60
53314;DHT22;39202;51.468;7.146;2022-12-18T09:35:07;21.90;37.60
53314;DHT22;39202;51.468;7.146;2022-12-18T09:40:13;21.90;37.60
53314;DHT22;39202;51.468;7.146;2022-12-18T09:45:16;22.00;37.60
53314;DHT22;39202;51.468;7.146;2022-12-18T09:50:25;22.00;37.60
53314;DHT22;39202;51.468;7.146;2022-12-18T09:55:31;22.00;37.50
53314;DHT22;39202;51.468;7.146;2022-12-18T10:00:34;22.10;37.50
53314;DHT22;39202;51.468;7.146;2022-12-18T10:05:42;22.10;37.40
53314;DHT22;39202;51.468;7.146;2022-12-18T10:10:50;22.10;37.40
53314;DHT22;39202;51.468;7.146;2022-12-18T10:16:03;22.10;37.30
53314;DHT22;39202;51.468;7.146;2022-12-18T10:21:13;22.10;37.30
53314;DHT22;39202;51.468;7.146;2022-12-18T10:26:18;22.20;37.30
53314;DHT22;39202;51.468;7.146;2022-12-18T10:31:22;22.20;37.10
53314;DHT22;39202;51.468;7.146;2022-12-18T10:36:25;22.10;37.10
53314;DHT22;39202;51.468;7.146;2022-12-18T10:41:27;22.10;37.10
53314;DHT22;39202;51.468;7.146;2022-12-18T10:46:31;22.10;37.20
53314;DHT22;39202;51.468;7.146;2022-12-18T10:51:36;22.10;37.30
53314;DHT22;39202;51.468;7.146;2022-12-18T10:56:39;22.10;37.30
53314;DHT22;39202;51.468;7.146;2022-12-18T11:01:51;22.00;37.20
53314;DHT22;39202;51.468;7.146;2022-12-18T11:06:59;22.00;37.30
53314;DHT22;39202;51.468;7.146;2022-12-18T11:12:02;22.00;37.30
53314;DHT22;39202;51.468;7.146;2022-12-18T11:17:18;22.00;37.40
53314;DHT22;39202;51.468;7.146;2022-12-18T11:22:23;22.10;37.50
53314;DHT22;39202;51.468;7.146;2022-12-18T11:27:27;22.00;37.40
53314;DHT22;39202;51.468;7.146;2022-12-18T11:32:35;22.10;37.50
53314;DHT22;39202;51.468;7.146;2022-12-18T11:37:39;22.20;37.50
53314;DHT22;39202;51.468;7.146;2022-12-18T11:42:48;22.20;37.40
53314;DHT22;39202;51.468;7.146;2022-12-18T11:47:56;22.20;38.00
53314;DHT22;39202;51.468;7.146;2022-12-18T11:53:00;22.20;37.30
53314;DHT22;39202;51.468;7.146;2022-12-18T11:58:08;22.20;37.30
53314;DHT22;39202;51.468;7.146;2022-12-18T12:03:24;22.10;37.30
53314;DHT22;39202;51.468;7.146;2022-12-18T12:08:40;22.10;37.20
53314;DHT22;39202;51.468;7.146;2022-12-18T12:14:01;22.10;37.20
53314;DHT22;39202;51.468;7.146;2022-12-18T12:19:18;22.10;37.20
53314;DHT22;39202;51.468;7.146;2022-12-18T12:24:33;22.10;37.20
53314;DHT22;39202;51.468;7.146;2022-12-18T12:29:49;22.10;37.20
53314;DHT22;39202;51.468;7.146;2022-12-18T12:35:02;22.10;37.20
53314;DHT22;39202;51.468;7.146;2022-12-18T12:40:12;22.00;37.20
53314;DHT22;39202;51.468;7.146;2022-12-18T12:45:20;22.00;37.20
53314;DHT22;39202;51.468;7.146;2022-12-18T12:50:24;22.00;37.20
53314;DHT22;39202;51.468;7.146;2022-12-18T12:55:29;22.00;37.20
53314;DHT22;39202;51.468;7.146;2022-12-18T13:00:36;22.00;37.30
53314;DHT22;39202;51.468;7.146;2022-12-18T13:05:45;22.00;37.40
53314;DHT22;39202;51.468;7.146;2022-12-18T13:10:52;22.00;37.40
53314;DHT22;39202;51.468;7.146;2022-12-18T13:16:18;22.00;37.40
53314;DHT22;39202;51.468;7.146;2022-12-18T13:21:24;22.10;37.40
53314;DHT22;39202;51.468;7.146;2022-12-18T13:26:31;22.10;37.40
53314;DHT22;39202;51.468;7.146;2022-12-18T13:37:40;22.10;37.40
53314;DHT22;39202;51.468;7.146;2022-12-18T13:42:45;22.10;37.30
53314;DHT22;39202;51.468;7.146;2022-12-18T13:48:04;22.10;37.30
53314;DHT22;39202;51.468;7.146;2022-12-18T13:53:07;22.10;37.30
53314;DHT22;39202;51.468;7.146;2022-12-18T13:58:12;22.10;37.30
53314;DHT22;39202;51.468;7.146;2022-12-18T14:03:20;22.10;37.20
53314;DHT22;39202;51.468;7.146;2022-12-18T14:08:29;22.10;37.20
53314;DHT22;39202;51.468;7.146;2022-12-18T14:13:36;22.10;37.20
53314;DHT22;39202;51.468;7.146;2022-12-18T14:18:44;22.00;37.20
53314;DHT22;39202;51.468;7.146;2022-12-18T14:23:46;22.00;37.20
53314;DHT22;39202;51.468;7.146;2022-12-18T14:28:49;22.00;37.20
53314;DHT22;39202;51.468;7.146;2022-12-18T14:33:52;22.00;37.30
53314;DHT22;39202;51.468;7.146;2022-12-18T14:38:55;22.00;37.40
53314;DHT22;39202;51.468;7.146;2022-12-18T14:44:05;22.00;37.40
53314;DHT22;39202;51.468;7.146;2022-12-18T14:49:20;22.00;37.40
53314;DHT22;39202;51.468;7.146;2022-12-18T14:54:24;22.10;37.70
53314;DHT22;39202;51.468;7.146;2022-12-18T14:59:29;22.10;37.60
53314;DHT22;39202;51.468;7.146;2022-12-18T15:04:33;22.20;37.70
53314;DHT22;39202;51.468;7.146;2022-12-18T15:09:36;22.20;37.70
53314;DHT22;39202;51.468;7.146;2022-12-18T15:14:42;22.20;37.70
53314;DHT22;39202;51.468;7.146;2022-12-18T15:19:44;22.10;37.50
53314;DHT22;39202;51.468;7.146;2022-12-18T15:24:47;22.20;37.50
53314;DHT22;39202;51.468;7.146;2022-12-18T15:30:02;22.20;37.50
53314;DHT22;39202;51.468;7.146;2022-12-18T15:35:13;22.20;37.40
53314;DHT22;39202;51.468;7.146;2022-12-18T15:40:16;22.20;37.40
53314;DHT22;39202;51.468;7.146;2022-12-18T15:45:19;22.10;37.40
53314;DHT22;39202;51.468;7.146;2022-12-18T15:50:21;22.10;37.30
53314;DHT22;39202;51.468;7.146;2022-12-18T15:55:23;22.00;37.30
53314;DHT22;39202;51.468;7.146;2022-12-18T16:00:44;22.00;37.40
53314;DHT22;39202;51.468;7.146;2022-12-18T16:05:46;22.00;37.40
53314;DHT22;39202;51.468;7.146;2022-12-18T16:10:47;22.00;37.40
53314;DHT22;39202;51.468;7.146;2022-12-18T16:15:50;22.00;37.40
53314;DHT22;39202;51.468;7.146;2022-12-18T16:20:52;22.00;37.50
53314;DHT22;39202;51.468;7.146;2022-12-18T16:25:54;22.00;37.60
53314;DHT22;39202;51.468;7.146;2022-12-18T16:30:57;22.00;37.60
53314;DHT22;39202;51.468;7.146;2022-12-18T16:35:58;22.00;37.60
53314;DHT22;39202;51.468;7.146;2022-12-18T16:41:00;22.10;37.70
53314;DHT22;39202;51.468;7.146;2022-12-18T16:46:21;22.10;37.60
53314;DHT22;39202;51.468;7.146;2022-12-18T16:51:23;22.10;37.50
53314;DHT22;39202;51.468;7.146;2022-12-18T16:56:24;22.10;37.50
53314;DHT22;39202;51.468;7.146;2022-12-18T17:01:29;22.20;37.50
53314;DHT22;39202;51.468;7.146;2022-12-18T17:06:33;22.20;37.50
53314;DHT22;39202;51.468;7.146;2022-12-18T17:11:35;22.20;37.40
53314;DHT22;39202;51.468;7.146;2022-12-18T17:16:38;22.20;37.30
53314;DHT22;39202;51.468;7.146;2022-12-18T17:21:42;22.20;37.30
53314;DHT22;39202;51.468;7.146;2022-12-18T17:26:44;22.10;37.30
53314;DHT22;39202;51.468;7.146;2022-12-18T17:31:47;22.10;37.30
53314;DHT22;39202;51.468;7.146;2022-12-18T17:36:49;22.10;37.30
53314;DHT22;39202;51.468;7.146;2022-12-18T17:41:51;22.10;37.30
53314;DHT22;39202;51.468;7.146;2022-12-18T17:46:54;22.10;37.30
53314;DHT22;39202;51.468;7.146;2022-12-18T17:51:56;22.10;37.30
53314;DHT22;39202;51.468;7.146;2022-12-18T17:56:57;22.10;37.40
53314;DHT22;39202;51.468;7.146;2022-12-18T18:02:00;22.10;37.50
53314;DHT22;39202;51.468;7.146;2022-12-18T18:07:02;22.10;37.50
53314;DHT22;39202;51.468;7.146;2022-12-18T18:12:04;22.10;37.50
53314;DHT22;39202;51.468;7.146;2022-12-18T18:17:25;22.20;37.50
53314;DHT22;39202;51.468;7.146;2022-12-18T18:22:27;22.10;37.50
53314;DHT22;39202;51.468;7.146;2022-12-18T18:27:29;22.20;37.50
53314;DHT22;39202;51.468;7.146;2022-12-18T18:32:33;22.20;37.50
53314;DHT22;39202;51.468;7.146;2022-12-18T18:37:38;22.20;37.40
53314;DHT22;39202;51.468;7.146;2022-12-18T18:42:40;22.20;37.30
53314;DHT22;39202;51.468;7.146;2022-12-18T18:47:43;22.20;37.30
53314;DHT22;39202;51.468;7.146;2022-12-18T18:52:45;22.20;37.20
53314;DHT22;39202;51.468;7.146;2022-12-18T18:57:47;22.10;37.20
53314;DHT22;39202;51.468;7.146;2022-12-18T19:02:50;22.10;37.20
53314;DHT22;39202;51.468;7.146;2022-12-18T19:07:51;22.00;37.20
53314;DHT22;39202;51.468;7.146;2022-12-18T19:12:53;22.10;37.30
53314;DHT22;39202;51.468;7.146;2022-12-18T19:18:13;22.00;37.20
53314;DHT22;39202;51.468;7.146;2022-12-18T19:23:15;22.00;37.40
53314;DHT22;39202;51.468;7.146;2022-12-18T19:28:17;22.00;37.40
53314;DHT22;39202;51.468;7.146;2022-12-18T19:33:21;22.00;37.40
53314;DHT22;39202;51.468;7.146;2022-12-18T19:38:24;22.10;37.50
53314;DHT22;39202;51.468;7.146;2022-12-18T19:43:26;22.20;37.40
53314;DHT22;39202;51.468;7.146;2022-12-18T19:48:29;22.20;37.40
53314;DHT22;39202;51.468;7.146;2022-12-18T19:53:31;22.20;37.30
53314;DHT22;39202;51.468;7.146;2022-12-18T19:58:33;22.20;37.30
53314;DHT22;39202;51.468;7.146;2022-12-18T20:03:36;22.20;37.30
53314;DHT22;39202;51.468;7.146;2022-12-18T20:08:38;22.20;37.20
53314;DHT22;39202;51.468;7.146;2022-12-18T20:13:40;22.20;37.20
53314;DHT22;39202;51.468;7.146;2022-12-18T20:18:43;22.20;37.10
53314;DHT22;39202;51.468;7.146;2022-12-18T20:23:45;22.10;37.10
53314;DHT22;39202;51.468;7.146;2022-12-18T20:28:47;22.10;37.10
53314;DHT22;39202;51.468;7.146;2022-12-18T20:33:50;22.10;37.20
53314;DHT22;39202;51.468;7.146;2022-12-18T20:38:52;22.10;37.10
53314;DHT22;39202;51.468;7.146;2022-12-18T20:43:55;22.10;37.30
53314;DHT22;39202;51.468;7.146;2022-12-18T20:48:58;22.10;37.30
53314;DHT22;39202;51.468;7.146;2022-12-18T20:54:00;22.10;37.40
53314;DHT22;39202;51.468;7.146;2022-12-18T20:59:02;22.10;37.40
53314;DHT22;39202;51.468;7.146;2022-12-18T21:04:05;22.10;37.40
53314;DHT22;39202;51.468;7.146;2022-12-18T21:09:07;22.10;37.40
53314;DHT22;39202;51.468;7.146;2022-12-18T21:14:10;22.10;37.40
53314;DHT22;39202;51.468;7.146;2022-12-18T21:19:15;22.10;37.30
53314;DHT22;39202;51.468;7.146;2022-12-18T21:24:17;22.20;37.30
53314;DHT22;39202;51.468;7.146;2022-12-18T21:29:21;22.20;37.30
53314;DHT22;39202;51.468;7.146;2022-12-18T21:34:26;22.20;37.20
53314;DHT22;39202;51.468;7.146;2022-12-18T21:39:29;22.20;37.10
53314;DHT22;39202;51.468;7.146;2022-12-18T21:44:30;22.20;37.10
53314;DHT22;39202;51.468;7.146;2022-12-18T21:49:34;22.20;37.00
53314;DHT22;39202;51.468;7.146;2022-12-18T21:54:35;22.10;37.10
53314;DHT22;39202;51.468;7.146;2022-12-18T21:59:39;22.10;37.10
53314;DHT22;39202;51.468;7.146;2022-12-18T22:04:43;22.10;37.20
53314;DHT22;39202;51.468;7.146;2022-12-18T22:09:45;22.10;37.10
53314;DHT22;39202;51.468;7.146;2022-12-18T22:14:52;22.10;37.20
53314;DHT22;39202;51.468;7.146;2022-12-18T22:19:55;22.10;37.30
53314;DHT22;39202;51.468;7.146;2022-12-18T22:24:57;22.10;37.30
53314;DHT22;39202;51.468;7.146;2022-12-18T22:29:58;22.10;37.30
53314;DHT22;39202;51.468;7.146;2022-12-18T22:35:09;22.10;37.30
53314;DHT22;39202;51.468;7.146;2022-12-18T22:40:17;22.20;37.30
53314;DHT22;39202;51.468;7.146;2022-12-18T22:45:20;22.20;37.30
53314;DHT22;39202;51.468;7.146;2022-12-18T22:50:23;22.20;37.30
53314;DHT22;39202;51.468;7.146;2022-12-18T22:55:24;22.20;37.10
53314;DHT22;39202;51.468;7.146;2022-12-18T23:00:26;22.20;37.10
53314;DHT22;39202;51.468;7.146;2022-12-18T23:05:30;22.20;37.10
53314;DHT22;39202;51.468;7.146;2022-12-18T23:10:31;22.20;37.10
53314;DHT22;39202;51.468;7.146;2022-12-18T23:15:33;22.20;37.00
53314;DHT22;39202;51.468;7.146;2022-12-18T23:20:36;22.10;37.00
53314;DHT22;39202;51.468;7.146;2022-12-18T23:25:38;22.10;37.00
53314;DHT22;39202;51.468;7.146;2022-12-18T23:30:39;22.10;37.00
53314;DHT22;39202;51.468;7.146;2022-12-18T23:35:42;22.00;36.90
53314;DHT22;39202;51.468;7.146;2022-12-18T23:40:44;22.00;37.60
53314;DHT22;39202;51.468;7.146;2022-12-18T23:45:46;22.00;37.00
53314;DHT22;39202;51.468;7.146;2022-12-18T23:50:49;21.90;36.90
53314;DHT22;39202;51.468;7.146;2022-12-18T23:55:51;21.90;37.00
